sensor_id;sensor_type;location;lat;lon;timestamp;temperature;humidity
42199;DHT22;27868;45.184;5.786;2022-12-18T00:02:37;6.60;96.20
42199;DHT22;27868;45.184;5.786;2022-12-18T00:05:21;5.20;95.70
42199;DHT22;27868;45.184;5.786;2022-12-18T00:08:06;5.60;95.80
42199;DHT22;27868;45.184;5.786;2022-12-18T00:10:52;5.20;95.70
42199;DHT22;27868;45.184;5.786;2022-12-18T00:13:38;5.70;95.80
42199;DHT22;27868;45.184;5.786;2022-12-18T00:16:24;5.60;95.90
42199;DHT22;27868;45.184;5.786;2022-12-18T00:19:10;5.20;95.50
42199;DHT22;27868;45.184;5.786;2022-12-18T00:21:55;6.10;95.70
42199;DHT22;27868;45.184;5.786;2022-12-18T00:24:41;5.70;95.60
42199;DHT22;27868;45.184;5.786;2022-12-18T00:27:26;5.20;95.30
42199;DHT22;27868;45.184;5.786;2022-12-18T00:30:11;5.70;95.50
42199;DHT22;27868;45.184;5.786;2022-12-18T00:32:57;5.10;95.20
42199;DHT22;27868;45.184;5.786;2022-12-18T00:35:42;5.10;95.20
42199;DHT22;27868;45.184;5.786;2022-12-18T00:38:27;5.50;95.30
42199;DHT22;27868;45.184;5.786;2022-12-18T00:41:14;5.10;95.00
42199;DHT22;27868;45.184;5.786;2022-12-18T00:44:19;5.80;95.10
42199;DHT22;27868;45.184;5.786;2022-12-18T00:47:04;6.00;95.10
42199;DHT22;27868;45.184;5.786;2022-12-18T00:49:51;6.10;95.20
42199;DHT22;27868;45.184;5.786;2022-12-18T00:52:37;5.00;94.80
42199;DHT22;27868;45.184;5.786;2022-12-18T00:55:22;5.00;94.80
42199;DHT22;27868;45.184;5.786;2022-12-18T00:58:10;6.20;95.00
42199;DHT22;27868;45.184;5.786;2022-12-18T01:00:55;5.80;94.70
42199;DHT22;27868;45.184;5.786;2022-12-18T01:03:42;4.90;94.30
42199;DHT22;27868;45.184;5.786;2022-12-18T01:06:30;5.10;94.40
42199;DHT22;27868;45.184;5.786;2022-12-18T01:09:16;4.80;94.20
42199;DHT22;27868;45.184;5.786;2022-12-18T01:12:02;4.80;94.40
42199;DHT22;27868;45.184;5.786;2022-12-18T01:14:49;4.80;94.10
42199;DHT22;27868;45.184;5.786;2022-12-18T01:17:41;4.70;94.10
42199;DHT22;27868;45.184;5.786;2022-12-18T01:20:27;5.10;94.20
42199;DHT22;27868;45.184;5.786;2022-12-18T01:23:35;4.70;94.00
42199;DHT22;27868;45.184;5.786;2022-12-18T01:26:30;4.70;94.00
42199;DHT22;27868;45.184;5.786;2022-12-18T01:29:15;4.60;94.00
42199;DHT22;27868;45.184;5.786;2022-12-18T01:32:03;5.20;94.20
42199;DHT22;27868;45.184;5.786;2022-12-18T01:34:55;4.60;94.00
42199;DHT22;27868;45.184;5.786;2022-12-18T01:37:41;4.50;94.50
42199;DHT22;27868;45.184;5.786;2022-12-18T01:40:31;4.50;93.90
42199;DHT22;27868;45.184;5.786;2022-12-18T01:46:30;4.40;93.90
42199;DHT22;27868;45.184;5.786;2022-12-18T01:49:19;4.50;94.00
42199;DHT22;27868;45.184;5.786;2022-12-18T01:52:18;4.40;93.90
42199;DHT22;27868;45.184;5.786;2022-12-18T01:55:08;4.80;94.10
42199;DHT22;27868;45.184;5.786;2022-12-18T01:57:56;4.40;94.10
42199;DHT22;27868;45.184;5.786;2022-12-18T02:00:44;4.80;94.30
42199;DHT22;27868;45.184;5.786;2022-12-18T02:03:33;5.50;94.50
42199;DHT22;27868;45.184;5.786;2022-12-18T02:06:27;4.40;94.40
42199;DHT22;27868;45.184;5.786;2022-12-18T02:09:47;4.40;94.30
42199;DHT22;27868;45.184;5.786;2022-12-18T02:12:45;4.70;94.30
42199;DHT22;27868;45.184;5.786;2022-12-18T02:15:41;5.40;94.60
42199;DHT22;27868;45.184;5.786;2022-12-18T02:18:42;4.30;94.40
42199;DHT22;27868;45.184;5.786;2022-12-18T02:22:00;4.30;94.50
42199;DHT22;27868;45.184;5.786;2022-12-18T02:28:28;4.30;94.80
42199;DHT22;27868;45.184;5.786;2022-12-18T02:31:35;4.30;94.50
42199;DHT22;27868;45.184;5.786;2022-12-18T02:34:30;4.30;94.50
42199;DHT22;27868;45.184;5.786;2022-12-18T02:37:22;4.20;94.40
42199;DHT22;27868;45.184;5.786;2022-12-18T02:40:18;3.40;94.20
42199;DHT22;27868;45.184;5.786;2022-12-18T02:43:10;5.20;94.60
42199;DHT22;27868;45.184;5.786;2022-12-18T02:46:35;4.30;94.30
42199;DHT22;27868;45.184;5.786;2022-12-18T02:56:01;4.20;93.90
42199;DHT22;27868;45.184;5.786;2022-12-18T02:59:06;3.50;93.80
42199;DHT22;27868;45.184;5.786;2022-12-18T03:02:25;4.90;94.10
42199;DHT22;27868;45.184;5.786;2022-12-18T03:05:52;4.10;93.90
42199;DHT22;27868;45.184;5.786;2022-12-18T03:08:48;4.60;94.00
42199;DHT22;27868;45.184;5.786;2022-12-18T03:11:41;4.10;93.80
42199;DHT22;27868;45.184;5.786;2022-12-18T03:15:22;4.00;93.80
42199;DHT22;27868;45.184;5.786;2022-12-18T03:18:25;4.00;93.80
42199;DHT22;27868;45.184;5.786;2022-12-18T03:22:03;4.00;93.80
42199;DHT22;27868;45.184;5.786;2022-12-18T03:24:51;4.00;93.80
42199;DHT22;27868;45.184;5.786;2022-12-18T03:28:07;4.60;94.00
42199;DHT22;27868;45.184;5.786;2022-12-18T03:31:45;3.90;93.80
42199;DHT22;27868;45.184;5.786;2022-12-18T03:34:59;3.90;93.90
42199;DHT22;27868;45.184;5.786;2022-12-18T03:37:53;4.10;93.90
42199;DHT22;27868;45.184;5.786;2022-12-18T03:44:46;3.90;93.80
42199;DHT22;27868;45.184;5.786;2022-12-18T03:48:33;3.90;93.80
42199;DHT22;27868;45.184;5.786;2022-12-18T03:56:13;3.80;93.70
42199;DHT22;27868;45.184;5.786;2022-12-18T04:00:12;3.80;93.70
42199;DHT22;27868;45.184;5.786;2022-12-18T04:03:53;3.80;93.70
42199;DHT22;27868;45.184;5.786;2022-12-18T04:07:58;3.80;93.70
42199;DHT22;27868;45.184;5.786;2022-12-18T04:11:11;3.70;93.60
42199;DHT22;27868;45.184;5.786;2022-12-18T04:18:34;3.70;93.60
42199;DHT22;27868;45.184;5.786;2022-12-18T04:21:48;3.70;93.70
42199;DHT22;27868;45.184;5.786;2022-12-18T04:24:59;3.70;93.70
42199;DHT22;27868;45.184;5.786;2022-12-18T04:28:06;3.90;94.00
42199;DHT22;27868;45.184;5.786;2022-12-18T04:31:46;4.30;94.00
42199;DHT22;27868;45.184;5.786;2022-12-18T04:35:16;3.70;93.70
42199;DHT22;27868;45.184;5.786;2022-12-18T04:38:53;3.70;93.70
42199;DHT22;27868;45.184;5.786;2022-12-18T04:42:42;3.60;93.70
42199;DHT22;27868;45.184;5.786;2022-12-18T04:46:17;3.70;93.70
42199;DHT22;27868;45.184;5.786;2022-12-18T04:49:43;3.60;93.50
42199;DHT22;27868;45.184;5.786;2022-12-18T04:52:58;3.60;93.50
42199;DHT22;27868;45.184;5.786;2022-12-18T04:56:39;3.60;93.60
42199;DHT22;27868;45.184;5.786;2022-12-18T05:00:10;3.50;93.80
42199;DHT22;27868;45.184;5.786;2022-12-18T05:04:21;3.60;93.70
42199;DHT22;27868;45.184;5.786;2022-12-18T05:08:16;3.50;93.70
42199;DHT22;27868;45.184;5.786;2022-12-18T05:12:06;3.50;93.70
42199;DHT22;27868;45.184;5.786;2022-12-18T05:16:12;3.50;93.60
42199;DHT22;27868;45.184;5.786;2022-12-18T05:20:15;3.40;93.60
42199;DHT22;27868;45.184;5.786;2022-12-18T05:27:53;3.40;93.70
42199;DHT22;27868;45.184;5.786;2022-12-18T05:43:00;3.50;94.40
42199;DHT22;27868;45.184;5.786;2022-12-18T05:51:04;4.00;94.60
42199;DHT22;27868;45.184;5.786;2022-12-18T05:54:54;3.50;94.30
42199;DHT22;27868;45.184;5.786;2022-12-18T06:03:07;3.40;94.10
42199;DHT22;27868;45.184;5.786;2022-12-18T06:11:04;3.40;94.20
42199;DHT22;27868;45.184;5.786;2022-12-18T06:15:28;3.40;94.20
42199;DHT22;27868;45.184;5.786;2022-12-18T06:18:43;3.30;94.30
42199;DHT22;27868;45.184;5.786;2022-12-18T06:22:44;3.40;94.30
42199;DHT22;27868;45.184;5.786;2022-12-18T06:26:43;3.50;94.40
42199;DHT22;27868;45.184;5.786;2022-12-18T06:33:34;3.40;94.30
42199;DHT22;27868;45.184;5.786;2022-12-18T06:37:19;3.30;94.30
42199;DHT22;27868;45.184;5.786;2022-12-18T06:40:46;3.40;94.30
42199;DHT22;27868;45.184;5.786;2022-12-18T06:45:04;3.30;94.20
42199;DHT22;27868;45.184;5.786;2022-12-18T06:48:42;3.40;94.20
42199;DHT22;27868;45.184;5.786;2022-12-18T06:52:18;3.30;94.20
42199;DHT22;27868;45.184;5.786;2022-12-18T06:55:49;3.30;94.20
42199;DHT22;27868;45.184;5.786;2022-12-18T06:59:48;3.30;94.10
42199;DHT22;27868;45.184;5.786;2022-12-18T07:02:57;3.30;94.20
42199;DHT22;27868;45.184;5.786;2022-12-18T07:06:28;3.30;94.20
42199;DHT22;27868;45.184;5.786;2022-12-18T07:09:27;3.30;94.10
42199;DHT22;27868;45.184;5.786;2022-12-18T07:12:29;3.30;94.10
42199;DHT22;27868;45.184;5.786;2022-12-18T07:15:19;3.30;94.30
42199;DHT22;27868;45.184;5.786;2022-12-18T07:18:05;3.30;94.00
42199;DHT22;27868;45.184;5.786;2022-12-18T07:21:02;4.60;94.50
42199;DHT22;27868;45.184;5.786;2022-12-18T07:23:53;3.30;93.80
42199;DHT22;27868;45.184;5.786;2022-12-18T07:26:40;3.20;93.70
42199;DHT22;27868;45.184;5.786;2022-12-18T07:29:25;3.40;93.80
42199;DHT22;27868;45.184;5.786;2022-12-18T07:32:10;4.40;94.10
42199;DHT22;27868;45.184;5.786;2022-12-18T07:34:55;3.80;93.90
42199;DHT22;27868;45.184;5.786;2022-12-18T07:37:41;3.30;93.80
42199;DHT22;27868;45.184;5.786;2022-12-18T07:40:26;4.70;94.20
42199;DHT22;27868;45.184;5.786;2022-12-18T07:43:11;4.40;94.10
42199;DHT22;27868;45.184;5.786;2022-12-18T07:45:55;4.40;94.10
42199;DHT22;27868;45.184;5.786;2022-12-18T07:48:42;4.70;94.20
42199;DHT22;27868;45.184;5.786;2022-12-18T07:51:26;3.50;93.80
42199;DHT22;27868;45.184;5.786;2022-12-18T07:54:12;4.00;94.00
42199;DHT22;27868;45.184;5.786;2022-12-18T07:56:56;3.20;93.70
42199;DHT22;27868;45.184;5.786;2022-12-18T07:59:41;3.20;93.70
42199;DHT22;27868;45.184;5.786;2022-12-18T08:02:26;4.30;93.90
42199;DHT22;27868;45.184;5.786;2022-12-18T08:05:10;3.20;93.70
42199;DHT22;27868;45.184;5.786;2022-12-18T08:07:55;4.30;93.90
42199;DHT22;27868;45.184;5.786;2022-12-18T08:10:40;4.50;94.00
42199;DHT22;27868;45.184;5.786;2022-12-18T08:13:25;4.30;93.90
42199;DHT22;27868;45.184;5.786;2022-12-18T08:16:11;4.20;93.90
42199;DHT22;27868;45.184;5.786;2022-12-18T08:18:55;3.80;93.80
42199;DHT22;27868;45.184;5.786;2022-12-18T08:21:40;3.80;93.80
42199;DHT22;27868;45.184;5.786;2022-12-18T08:24:25;4.30;94.00
42199;DHT22;27868;45.184;5.786;2022-12-18T08:27:09;3.20;93.80
42199;DHT22;27868;45.184;5.786;2022-12-18T08:29:54;4.40;94.10
42199;DHT22;27868;45.184;5.786;2022-12-18T08:32:39;4.80;94.20
42199;DHT22;27868;45.184;5.786;2022-12-18T08:35:24;3.70;94.00
42199;DHT22;27868;45.184;5.786;2022-12-18T08:38:08;4.10;94.20
42199;DHT22;27868;45.184;5.786;2022-12-18T08:40:59;4.40;94.30
42199;DHT22;27868;45.184;5.786;2022-12-18T08:43:45;4.50;94.50
42199;DHT22;27868;45.184;5.786;2022-12-18T08:46:48;4.30;94.50
42199;DHT22;27868;45.184;5.786;2022-12-18T08:49:34;4.20;94.60
42199;DHT22;27868;45.184;5.786;2022-12-18T08:52:19;4.70;94.80
42199;DHT22;27868;45.184;5.786;2022-12-18T08:55:04;4.30;94.90
42199;DHT22;27868;45.184;5.786;2022-12-18T08:57:49;3.30;94.70
42199;DHT22;27868;45.184;5.786;2022-12-18T09:00:34;4.30;95.00
42199;DHT22;27868;45.184;5.786;2022-12-18T09:03:19;4.30;95.20
42199;DHT22;27868;45.184;5.786;2022-12-18T09:06:07;4.00;95.10
42199;DHT22;27868;45.184;5.786;2022-12-18T09:08:52;4.30;95.20
42199;DHT22;27868;45.184;5.786;2022-12-18T09:11:37;4.50;95.40
42199;DHT22;27868;45.184;5.786;2022-12-18T09:14:22;3.50;95.20
42199;DHT22;27868;45.184;5.786;2022-12-18T09:17:06;4.60;95.50
42199;DHT22;27868;45.184;5.786;2022-12-18T09:19:50;4.10;95.50
42199;DHT22;27868;45.184;5.786;2022-12-18T09:22:35;4.80;95.70
42199;DHT22;27868;45.184;5.786;2022-12-18T09:25:20;3.40;95.50
42199;DHT22;27868;45.184;5.786;2022-12-18T09:28:09;4.70;95.90
42199;DHT22;27868;45.184;5.786;2022-12-18T09:30:54;4.30;95.80
42199;DHT22;27868;45.184;5.786;2022-12-18T09:33:39;3.40;95.60
42199;DHT22;27868;45.184;5.786;2022-12-18T09:36:24;3.40;95.70
42199;DHT22;27868;45.184;5.786;2022-12-18T09:39:09;3.90;95.90
42199;DHT22;27868;45.184;5.786;2022-12-18T09:41:57;4.60;96.20
42199;DHT22;27868;45.184;5.786;2022-12-18T09:44:45;4.70;96.20
42199;DHT22;27868;45.184;5.786;2022-12-18T09:47:37;3.50;95.90
42199;DHT22;27868;45.184;5.786;2022-12-18T09:50:37;4.60;96.20
42199;DHT22;27868;45.184;5.786;2022-12-18T09:53:27;3.60;95.90
42199;DHT22;27868;45.184;5.786;2022-12-18T09:56:18;4.80;96.20
42199;DHT22;27868;45.184;5.786;2022-12-18T09:59:04;3.60;96.00
42199;DHT22;27868;45.184;5.786;2022-12-18T10:01:49;4.20;96.10
42199;DHT22;27868;45.184;5.786;2022-12-18T10:04:35;5.00;96.30
42199;DHT22;27868;45.184;5.786;2022-12-18T10:07:43;5.00;96.40
42199;DHT22;27868;45.184;5.786;2022-12-18T10:10:48;3.60;96.00
42199;DHT22;27868;45.184;5.786;2022-12-18T10:13:50;4.40;96.30
42199;DHT22;27868;45.184;5.786;2022-12-18T10:16:47;4.80;96.40
42199;DHT22;27868;45.184;5.786;2022-12-18T10:19:53;4.50;96.30
42199;DHT22;27868;45.184;5.786;2022-12-18T10:23:12;3.70;96.20
42199;DHT22;27868;45.184;5.786;2022-12-18T10:28:47;3.70;96.20
42199;DHT22;27868;45.184;5.786;2022-12-18T10:31:31;4.80;96.60
42199;DHT22;27868;45.184;5.786;2022-12-18T10:34:16;5.00;96.70
42199;DHT22;27868;45.184;5.786;2022-12-18T10:37:03;4.00;96.40
42199;DHT22;27868;45.184;5.786;2022-12-18T10:40:12;3.90;96.40
42199;DHT22;27868;45.184;5.786;2022-12-18T10:43:21;3.90;96.40
42199;DHT22;27868;45.184;5.786;2022-12-18T10:48:54;3.90;96.50
42199;DHT22;27868;45.184;5.786;2022-12-18T10:51:39;5.10;96.80
42199;DHT22;27868;45.184;5.786;2022-12-18T10:54:25;4.90;96.80
42199;DHT22;27868;45.184;5.786;2022-12-18T10:57:30;4.00;96.50
42199;DHT22;27868;45.184;5.786;2022-12-18T11:00:24;4.00;96.50
42199;DHT22;27868;45.184;5.786;2022-12-18T11:03:30;4.00;96.60
42199;DHT22;27868;45.184;5.786;2022-12-18T11:06:19;4.00;96.60
42199;DHT22;27868;45.184;5.786;2022-12-18T11:09:19;4.10;96.70
42199;DHT22;27868;45.184;5.786;2022-12-18T11:12:19;5.30;97.00
42199;DHT22;27868;45.184;5.786;2022-12-18T11:15:16;4.10;96.70
42199;DHT22;27868;45.184;5.786;2022-12-18T11:18:04;4.10;96.70
42199;DHT22;27868;45.184;5.786;2022-12-18T11:20:58;4.10;96.60
42199;DHT22;27868;45.184;5.786;2022-12-18T11:23:49;4.20;96.60
42199;DHT22;27868;45.184;5.786;2022-12-18T11:26:35;5.50;97.00
42199;DHT22;27868;45.184;5.786;2022-12-18T11:29:35;4.70;97.00
42199;DHT22;27868;45.184;5.786;2022-12-18T11:32:28;4.30;97.00
42199;DHT22;27868;45.184;5.786;2022-12-18T11:35:23;4.80;97.20
42199;DHT22;27868;45.184;5.786;2022-12-18T11:38:24;4.90;97.30
42199;DHT22;27868;45.184;5.786;2022-12-18T11:41:36;4.30;97.10
42199;DHT22;27868;45.184;5.786;2022-12-18T11:48:04;4.40;97.20
42199;DHT22;27868;45.184;5.786;2022-12-18T11:50:55;4.40;97.20
42199;DHT22;27868;45.184;5.786;2022-12-18T11:53:41;5.50;97.50
42199;DHT22;27868;45.184;5.786;2022-12-18T11:56:39;4.50;97.40
42199;DHT22;27868;45.184;5.786;2022-12-18T12:02:53;4.60;97.30
42199;DHT22;27868;45.184;5.786;2022-12-18T12:05:57;4.70;97.30
42199;DHT22;27868;45.184;5.786;2022-12-18T12:12:54;4.70;97.20
42199;DHT22;27868;45.184;5.786;2022-12-18T12:16:23;4.70;97.20
42199;DHT22;27868;45.184;5.786;2022-12-18T12:22:59;4.80;97.10
42199;DHT22;27868;45.184;5.786;2022-12-18T12:26:26;4.80;97.00
42199;DHT22;27868;45.184;5.786;2022-12-18T12:33:02;4.90;96.90
42199;DHT22;27868;45.184;5.786;2022-12-18T12:40:07;5.10;96.80
42199;DHT22;27868;45.184;5.786;2022-12-18T12:44:31;5.20;96.90
42199;DHT22;27868;45.184;5.786;2022-12-18T12:52:30;5.00;96.70
42199;DHT22;27868;45.184;5.786;2022-12-18T12:56:36;5.40;96.70
42199;DHT22;27868;45.184;5.786;2022-12-18T13:04:57;5.60;96.50
42199;DHT22;27868;45.184;5.786;2022-12-18T13:08:03;5.70;96.50
42199;DHT22;27868;45.184;5.786;2022-12-18T13:11:38;5.70;96.40
42199;DHT22;27868;45.184;5.786;2022-12-18T13:14:43;5.80;96.30
42199;DHT22;27868;45.184;5.786;2022-12-18T13:17:31;5.80;96.30
42199;DHT22;27868;45.184;5.786;2022-12-18T13:20:24;5.90;96.30
42199;DHT22;27868;45.184;5.786;2022-12-18T13:23:33;6.00;96.20
42199;DHT22;27868;45.184;5.786;2022-12-18T13:26:44;6.00;96.00
42199;DHT22;27868;45.184;5.786;2022-12-18T13:46:23;6.90;96.30
42199;DHT22;27868;45.184;5.786;2022-12-18T13:50:22;6.30;95.80
42199;DHT22;27868;45.184;5.786;2022-12-18T13:57:26;6.30;95.60
42199;DHT22;27868;45.184;5.786;2022-12-18T14:00:33;6.40;95.60
42199;DHT22;27868;45.184;5.786;2022-12-18T14:03:31;6.40;95.60
42199;DHT22;27868;45.184;5.786;2022-12-18T14:06:41;6.50;95.60
42199;DHT22;27868;45.184;5.786;2022-12-18T14:09:55;6.50;95.50
42199;DHT22;27868;45.184;5.786;2022-12-18T14:13:32;6.50;95.40
42199;DHT22;27868;45.184;5.786;2022-12-18T14:16:50;6.50;95.40
42199;DHT22;27868;45.184;5.786;2022-12-18T14:20:33;7.10;95.60
42199;DHT22;27868;45.184;5.786;2022-12-18T14:24:20;6.60;95.40
42199;DHT22;27868;45.184;5.786;2022-12-18T14:35:20;6.60;95.20
42199;DHT22;27868;45.184;5.786;2022-12-18T14:38:43;6.60;95.20
42199;DHT22;27868;45.184;5.786;2022-12-18T14:42:04;7.10;95.40
42199;DHT22;27868;45.184;5.786;2022-12-18T14:45:56;6.60;95.30
42199;DHT22;27868;45.184;5.786;2022-12-18T14:52:42;6.50;95.10
42199;DHT22;27868;45.184;5.786;2022-12-18T14:56:17;5.60;94.80
42199;DHT22;27868;45.184;5.786;2022-12-18T14:59:34;6.50;94.90
42199;DHT22;27868;45.184;5.786;2022-12-18T15:02:26;6.50;94.80
42199;DHT22;27868;45.184;5.786;2022-12-18T15:05:25;7.40;95.10
42199;DHT22;27868;45.184;5.786;2022-12-18T15:08:41;6.50;94.90
42199;DHT22;27868;45.184;5.786;2022-12-18T15:11:49;6.40;94.90
42199;DHT22;27868;45.184;5.786;2022-12-18T15:15:52;6.40;95.00
42199;DHT22;27868;45.184;5.786;2022-12-18T15:18:19;6.40;94.90
42199;DHT22;27868;45.184;5.786;2022-12-18T15:21:19;6.30;94.80
42199;DHT22;27868;45.184;5.786;2022-12-18T15:24:18;6.30;94.80
42199;DHT22;27868;45.184;5.786;2022-12-18T15:27:23;6.30;94.90
42199;DHT22;27868;45.184;5.786;2022-12-18T15:30:21;6.30;94.90
42199;DHT22;27868;45.184;5.786;2022-12-18T15:33:24;6.20;94.90
42199;DHT22;27868;45.184;5.786;2022-12-18T15:36:23;6.20;94.70
42199;DHT22;27868;45.184;5.786;2022-12-18T15:39:20;6.20;94.80
42199;DHT22;27868;45.184;5.786;2022-12-18T15:42:19;6.20;94.80
42199;DHT22;27868;45.184;5.786;2022-12-18T15:45:24;6.20;94.90
42199;DHT22;27868;45.184;5.786;2022-12-18T15:48:23;6.10;94.90
42199;DHT22;27868;45.184;5.786;2022-12-18T15:51:29;6.10;95.00
42199;DHT22;27868;45.184;5.786;2022-12-18T15:54:18;6.00;95.00
42199;DHT22;27868;45.184;5.786;2022-12-18T15:57:26;6.10;95.10
42199;DHT22;27868;45.184;5.786;2022-12-18T16:00:12;6.10;95.00
42199;DHT22;27868;45.184;5.786;2022-12-18T16:02:58;6.00;95.00
42199;DHT22;27868;45.184;5.786;2022-12-18T16:05:50;6.30;95.30
42199;DHT22;27868;45.184;5.786;2022-12-18T16:09:05;6.00;95.00
42199;DHT22;27868;45.184;5.786;2022-12-18T16:11:52;6.60;95.20
42199;DHT22;27868;45.184;5.786;2022-12-18T16:14:39;6.20;95.10
42199;DHT22;27868;45.184;5.786;2022-12-18T16:17:26;5.90;94.90
42199;DHT22;27868;45.184;5.786;2022-12-18T16:20:22;6.50;95.20
42199;DHT22;27868;45.184;5.786;2022-12-18T16:23:09;5.90;95.10
42199;DHT22;27868;45.184;5.786;2022-12-18T16:25:56;5.90;95.00
42199;DHT22;27868;45.184;5.786;2022-12-18T16:28:43;6.30;95.20
42199;DHT22;27868;45.184;5.786;2022-12-18T16:31:36;5.80;95.10
42199;DHT22;27868;45.184;5.786;2022-12-18T16:34:33;6.60;95.30
42199;DHT22;27868;45.184;5.786;2022-12-18T16:37:27;5.80;95.20
42199;DHT22;27868;45.184;5.786;2022-12-18T16:40:16;5.80;95.20
42199;DHT22;27868;45.184;5.786;2022-12-18T16:43:00;5.80;95.10
42199;DHT22;27868;45.184;5.786;2022-12-18T16:45:47;6.70;95.60
42199;DHT22;27868;45.184;5.786;2022-12-18T16:48:32;6.80;95.60
42199;DHT22;27868;45.184;5.786;2022-12-18T16:51:17;5.70;95.30
42199;DHT22;27868;45.184;5.786;2022-12-18T16:54:02;5.70;95.30
42199;DHT22;27868;45.184;5.786;2022-12-18T16:56:47;5.80;95.30
42199;DHT22;27868;45.184;5.786;2022-12-18T16:59:34;5.90;95.30
42199;DHT22;27868;45.184;5.786;2022-12-18T17:02:23;7.20;95.60
42199;DHT22;27868;45.184;5.786;2022-12-18T17:05:11;6.50;95.40
42199;DHT22;27868;45.184;5.786;2022-12-18T17:07:57;5.70;95.20
42199;DHT22;27868;45.184;5.786;2022-12-18T17:10:42;5.60;95.10
42199;DHT22;27868;45.184;5.786;2022-12-18T17:13:30;5.80;95.30
42199;DHT22;27868;45.184;5.786;2022-12-18T17:16:16;5.90;95.40
42199;DHT22;27868;45.184;5.786;2022-12-18T17:19:03;6.50;95.50
42199;DHT22;27868;45.184;5.786;2022-12-18T17:21:51;5.50;95.30
42199;DHT22;27868;45.184;5.786;2022-12-18T17:24:36;5.50;95.40
42199;DHT22;27868;45.184;5.786;2022-12-18T17:27:21;5.50;95.60
42199;DHT22;27868;45.184;5.786;2022-12-18T17:30:07;7.00;96.00
42199;DHT22;27868;45.184;5.786;2022-12-18T17:32:52;5.50;95.60
42199;DHT22;27868;45.184;5.786;2022-12-18T17:35:39;5.60;95.80
42199;DHT22;27868;45.184;5.786;2022-12-18T17:38:29;5.50;95.70
42199;DHT22;27868;45.184;5.786;2022-12-18T17:41:14;5.90;96.00
42199;DHT22;27868;45.184;5.786;2022-12-18T17:44:05;5.50;95.90
42199;DHT22;27868;45.184;5.786;2022-12-18T17:46:51;5.50;96.00
42199;DHT22;27868;45.184;5.786;2022-12-18T17:49:37;5.50;96.10
42199;DHT22;27868;45.184;5.786;2022-12-18T17:52:22;5.50;96.10
42199;DHT22;27868;45.184;5.786;2022-12-18T17:55:07;5.50;96.20
42199;DHT22;27868;45.184;5.786;2022-12-18T17:57:53;5.60;96.30
42199;DHT22;27868;45.184;5.786;2022-12-18T18:00:39;6.10;96.40
42199;DHT22;27868;45.184;5.786;2022-12-18T18:03:26;6.40;96.50
42199;DHT22;27868;45.184;5.786;2022-12-18T18:06:11;5.50;96.30
42199;DHT22;27868;45.184;5.786;2022-12-18T18:08:56;6.80;96.70
42199;DHT22;27868;45.184;5.786;2022-12-18T18:11:44;5.50;96.40
42199;DHT22;27868;45.184;5.786;2022-12-18T18:14:47;5.60;96.40
42199;DHT22;27868;45.184;5.786;2022-12-18T18:17:32;5.60;96.40
42199;DHT22;27868;45.184;5.786;2022-12-18T18:20:17;6.40;96.60
42199;DHT22;27868;45.184;5.786;2022-12-18T18:23:03;5.60;96.50
42199;DHT22;27868;45.184;5.786;2022-12-18T18:26:11;5.80;96.50
42199;DHT22;27868;45.184;5.786;2022-12-18T18:28:58;6.00;96.50
42199;DHT22;27868;45.184;5.786;2022-12-18T18:31:44;6.40;96.70
42199;DHT22;27868;45.184;5.786;2022-12-18T18:34:30;6.20;96.70
42199;DHT22;27868;45.184;5.786;2022-12-18T18:37:15;5.60;96.70
42199;DHT22;27868;45.184;5.786;2022-12-18T18:40:00;5.60;96.40
42199;DHT22;27868;45.184;5.786;2022-12-18T18:42:46;6.30;96.60
42199;DHT22;27868;45.184;5.786;2022-12-18T18:45:31;6.80;96.60
42199;DHT22;27868;45.184;5.786;2022-12-18T18:48:16;6.80;96.70
42199;DHT22;27868;45.184;5.786;2022-12-18T18:51:06;6.30;96.30
42199;DHT22;27868;45.184;5.786;2022-12-18T18:53:52;5.50;96.10
42199;DHT22;27868;45.184;5.786;2022-12-18T18:56:37;5.50;96.10
42199;DHT22;27868;45.184;5.786;2022-12-18T18:59:22;5.50;96.20
42199;DHT22;27868;45.184;5.786;2022-12-18T19:02:10;5.80;96.20
42199;DHT22;27868;45.184;5.786;2022-12-18T19:04:57;6.70;96.40
42199;DHT22;27868;45.184;5.786;2022-12-18T19:07:47;5.50;96.10
42199;DHT22;27868;45.184;5.786;2022-12-18T19:10:39;5.50;96.10
42199;DHT22;27868;45.184;5.786;2022-12-18T19:13:28;6.20;96.40
42199;DHT22;27868;45.184;5.786;2022-12-18T19:16:14;6.50;96.60
42199;DHT22;27868;45.184;5.786;2022-12-18T19:18:58;6.00;96.60
42199;DHT22;27868;45.184;5.786;2022-12-18T19:21:43;6.40;96.60
42199;DHT22;27868;45.184;5.786;2022-12-18T19:24:29;6.60;96.70
42199;DHT22;27868;45.184;5.786;2022-12-18T19:27:15;6.60;96.80
42199;DHT22;27868;45.184;5.786;2022-12-18T19:30:01;4.80;96.40
42199;DHT22;27868;45.184;5.786;2022-12-18T19:32:46;5.50;96.60
42199;DHT22;27868;45.184;5.786;2022-12-18T19:35:30;6.40;96.90
42199;DHT22;27868;45.184;5.786;2022-12-18T19:38:15;6.50;97.00
42199;DHT22;27868;45.184;5.786;2022-12-18T19:41:04;6.50;97.00
42199;DHT22;27868;45.184;5.786;2022-12-18T19:43:51;5.50;96.70
42199;DHT22;27868;45.184;5.786;2022-12-18T19:46:37;5.50;96.80
42199;DHT22;27868;45.184;5.786;2022-12-18T19:49:22;6.60;97.10
42199;DHT22;27868;45.184;5.786;2022-12-18T19:52:08;5.90;97.00
42199;DHT22;27868;45.184;5.786;2022-12-18T19:54:54;5.70;96.90
42199;DHT22;27868;45.184;5.786;2022-12-18T19:57:40;5.60;96.90
42199;DHT22;27868;45.184;5.786;2022-12-18T20:00:27;6.40;97.10
42199;DHT22;27868;45.184;5.786;2022-12-18T20:03:12;5.70;97.10
42199;DHT22;27868;45.184;5.786;2022-12-18T20:09:06;5.60;96.80
42199;DHT22;27868;45.184;5.786;2022-12-18T20:11:51;4.80;96.60
42199;DHT22;27868;45.184;5.786;2022-12-18T20:14:38;6.60;97.10
42199;DHT22;27868;45.184;5.786;2022-12-18T20:17:23;6.80;97.20
42199;DHT22;27868;45.184;5.786;2022-12-18T20:20:09;5.70;96.90
42199;DHT22;27868;45.184;5.786;2022-12-18T20:23:03;5.60;97.00
42199;DHT22;27868;45.184;5.786;2022-12-18T20:25:51;5.60;96.90
42199;DHT22;27868;45.184;5.786;2022-12-18T20:28:37;5.70;97.10
42199;DHT22;27868;45.184;5.786;2022-12-18T20:31:25;5.60;97.00
42199;DHT22;27868;45.184;5.786;2022-12-18T20:34:10;5.70;97.00
42199;DHT22;27868;45.184;5.786;2022-12-18T20:36:56;5.70;97.00
42199;DHT22;27868;45.184;5.786;2022-12-18T20:39:46;5.70;97.00
42199;DHT22;27868;45.184;5.786;2022-12-18T20:42:32;5.70;97.00
42199;DHT22;27868;45.184;5.786;2022-12-18T20:45:17;6.00;97.00
42199;DHT22;27868;45.184;5.786;2022-12-18T20:48:06;5.70;96.90
42199;DHT22;27868;45.184;5.786;2022-12-18T20:51:04;5.70;96.90
42199;DHT22;27868;45.184;5.786;2022-12-18T20:53:55;5.60;96.90
42199;DHT22;27868;45.184;5.786;2022-12-18T20:56:43;6.30;97.10
42199;DHT22;27868;45.184;5.786;2022-12-18T20:59:37;6.70;97.60
42199;DHT22;27868;45.184;5.786;2022-12-18T21:02:23;5.60;97.00
42199;DHT22;27868;45.184;5.786;2022-12-18T21:05:08;5.60;97.00
42199;DHT22;27868;45.184;5.786;2022-12-18T21:07:53;5.70;97.10
42199;DHT22;27868;45.184;5.786;2022-12-18T21:10:39;5.80;97.20
42199;DHT22;27868;45.184;5.786;2022-12-18T21:13:28;6.10;97.30
42199;DHT22;27868;45.184;5.786;2022-12-18T21:16:15;5.60;97.20
42199;DHT22;27868;45.184;5.786;2022-12-18T21:19:00;6.00;97.30
42199;DHT22;27868;45.184;5.786;2022-12-18T21:21:50;5.60;97.10